CheckWX is a tool to help pilots better visualize weather data.  It is not intended as a substitute for an official pre-flight weather briefing.

05:48:19 UTC

CYWA TAF
Petawawa Airport
Petawawa, Canada
TAF CYWA 200530Z 2006/2018 VRB03KT P6SM FEW030 SCT080 PROB30 2010/2014 1SM BR FM201700 VRB03KT P6SM BKN120 RMK FCST BASED ON AUTO OBS. NXT FCST BY 201200Z

Feb-20@
06:00 UTC

Feb-20 @ 06:00 UTC

Feb-20@
17:00 UTC

Feb-20 @ 17:00 UTC

TAF CYWA 200530Z 2006/2018 VRB03KT P6SM FEW030 SCT080
Wind
  • Variable at 3 KTS
Visibility
10,000+ meters
Cloud Levels
  • Few at 3,000' AGL
  • Scattered at 8,000' AGL

Feb-20@
10:00 UTC

Feb-20 @ 10:00 UTC

Feb-20@
14:00 UTC

Feb-20 @ 14:00 UTC

PROB30 2010/2014 1SM BR

Probable - 30% Likelihood

Probable - 30% Likelihood during this time.

Visibility
1,609 meters
Conditions
Mist

Feb-20@
17:00 UTC

Feb-20 @ 17:00 UTC

Feb-20@
18:00 UTC

Feb-20 @ 18:00 UTC

FM201700 VRB03KT P6SM BKN120 RMK FCST BASED ON AUTO OBS. NXT FCST BY 201200Z

From

FromStandard forecast or significant change

Wind
  • Variable at 3 KTS
Visibility
10,000+ meters
Cloud Levels
  • Broken at 12,000' AGL